sensor_id;sensor_type;location;lat;lon;timestamp;P1;durP1;ratioP1;P2;durP2;ratioP2
25687;SDS011;17407;51.120;3.702;2023-06-22T00:01:28;9.85;;;6.82;;
25687;SDS011;17407;51.120;3.702;2023-06-22T00:03:54;8.90;;;6.60;;
25687;SDS011;17407;51.120;3.702;2023-06-22T00:06:19;7.88;;;6.82;;
25687;SDS011;17407;51.120;3.702;2023-06-22T00:08:45;11.20;;;7.80;;
25687;SDS011;17407;51.120;3.702;2023-06-22T00:11:12;10.68;;;7.95;;
25687;SDS011;17407;51.120;3.702;2023-06-22T00:13:38;8.88;;;7.72;;
25687;SDS011;17407;51.120;3.702;2023-06-22T00:16:04;11.15;;;7.07;;
25687;SDS011;17407;51.120;3.702;2023-06-22T00:18:30;7.72;;;6.72;;
25687;SDS011;17407;51.120;3.702;2023-06-22T00:20:56;9.45;;;6.47;;
25687;SDS011;17407;51.120;3.702;2023-06-22T00:23:25;9.63;;;7.60;;
25687;SDS011;17407;51.120;3.702;2023-06-22T00:25:51;8.95;;;7.18;;
25687;SDS011;17407;51.120;3.702;2023-06-22T00:28:17;9.88;;;7.13;;
25687;SDS011;17407;51.120;3.702;2023-06-22T00:30:42;13.50;;;7.50;;
25687;SDS011;17407;51.120;3.702;2023-06-22T00:33:08;11.05;;;7.50;;
25687;SDS011;17407;51.120;3.702;2023-06-22T00:35:34;14.52;;;7.80;;
25687;SDS011;17407;51.120;3.702;2023-06-22T00:38:00;10.65;;;7.45;;
25687;SDS011;17407;51.120;3.702;2023-06-22T00:40:27;10.32;;;7.35;;
25687;SDS011;17407;51.120;3.702;2023-06-22T00:42:54;13.38;;;8.40;;
25687;SDS011;17407;51.120;3.702;2023-06-22T00:45:20;11.82;;;8.32;;
25687;SDS011;17407;51.120;3.702;2023-06-22T00:47:48;12.70;;;9.15;;
25687;SDS011;17407;51.120;3.702;2023-06-22T00:50:22;11.95;;;9.07;;
25687;SDS011;17407;51.120;3.702;2023-06-22T00:52:53;17.15;;;8.85;;
25687;SDS011;17407;51.120;3.702;2023-06-22T00:57:50;9.27;;;8.18;;
25687;SDS011;17407;51.120;3.702;2023-06-22T01:00:20;10.65;;;7.60;;
25687;SDS011;17407;51.120;3.702;2023-06-22T01:02:49;7.35;;;6.65;;
25687;SDS011;17407;51.120;3.702;2023-06-22T01:05:18;12.70;;;8.43;;
25687;SDS011;17407;51.120;3.702;2023-06-22T01:07:52;10.15;;;7.53;;
25687;SDS011;17407;51.120;3.702;2023-06-22T01:11:01;12.27;;;9.43;;
25687;SDS011;17407;51.120;3.702;2023-06-22T01:13:32;11.27;;;8.15;;
25687;SDS011;17407;51.120;3.702;2023-06-22T01:16:26;12.18;;;9.23;;
25687;SDS011;17407;51.120;3.702;2023-06-22T01:18:55;11.65;;;8.20;;
25687;SDS011;17407;51.120;3.702;2023-06-22T01:21:25;8.05;;;7.25;;
25687;SDS011;17407;51.120;3.702;2023-06-22T01:24:09;9.13;;;7.15;;
25687;SDS011;17407;51.120;3.702;2023-06-22T01:26:43;11.90;;;7.82;;
25687;SDS011;17407;51.120;3.702;2023-06-22T01:29:24;16.70;;;8.90;;
25687;SDS011;17407;51.120;3.702;2023-06-22T01:31:52;13.77;;;9.50;;
25687;SDS011;17407;51.120;3.702;2023-06-22T01:34:21;13.05;;;8.40;;
25687;SDS011;17407;51.120;3.702;2023-06-22T01:36:48;13.38;;;10.00;;
25687;SDS011;17407;51.120;3.702;2023-06-22T01:39:15;13.40;;;9.00;;
25687;SDS011;17407;51.120;3.702;2023-06-22T01:41:42;10.93;;;8.25;;
25687;SDS011;17407;51.120;3.702;2023-06-22T01:44:09;12.45;;;8.55;;
25687;SDS011;17407;51.120;3.702;2023-06-22T01:46:35;11.88;;;8.23;;
25687;SDS011;17407;51.120;3.702;2023-06-22T01:49:03;10.88;;;8.50;;
25687;SDS011;17407;51.120;3.702;2023-06-22T01:51:30;12.85;;;8.98;;
25687;SDS011;17407;51.120;3.702;2023-06-22T01:53:56;10.88;;;7.63;;
25687;SDS011;17407;51.120;3.702;2023-06-22T01:56:21;12.60;;;8.45;;
25687;SDS011;17407;51.120;3.702;2023-06-22T01:58:54;13.85;;;9.50;;
25687;SDS011;17407;51.120;3.702;2023-06-22T02:01:36;14.18;;;9.02;;
25687;SDS011;17407;51.120;3.702;2023-06-22T02:04:27;11.27;;;8.63;;
25687;SDS011;17407;51.120;3.702;2023-06-22T02:07:18;20.42;;;13.18;;
25687;SDS011;17407;51.120;3.702;2023-06-22T02:09:48;12.43;;;9.40;;
25687;SDS011;17407;51.120;3.702;2023-06-22T02:12:18;11.90;;;8.90;;
25687;SDS011;17407;51.120;3.702;2023-06-22T02:14:48;12.57;;;8.05;;
25687;SDS011;17407;51.120;3.702;2023-06-22T02:17:14;15.27;;;10.32;;
25687;SDS011;17407;51.120;3.702;2023-06-22T02:19:41;15.18;;;9.75;;
25687;SDS011;17407;51.120;3.702;2023-06-22T02:22:07;14.10;;;9.07;;
25687;SDS011;17407;51.120;3.702;2023-06-22T02:24:33;15.90;;;10.15;;
25687;SDS011;17407;51.120;3.702;2023-06-22T02:26:59;12.45;;;9.23;;
25687;SDS011;17407;51.120;3.702;2023-06-22T02:29:25;14.40;;;9.40;;
25687;SDS011;17407;51.120;3.702;2023-06-22T02:31:54;15.90;;;9.45;;
25687;SDS011;17407;51.120;3.702;2023-06-22T02:34:20;17.73;;;9.73;;
25687;SDS011;17407;51.120;3.702;2023-06-22T02:36:47;13.63;;;9.35;;
25687;SDS011;17407;51.120;3.702;2023-06-22T02:39:25;14.05;;;9.70;;
25687;SDS011;17407;51.120;3.702;2023-06-22T02:41:51;16.48;;;10.52;;
25687;SDS011;17407;51.120;3.702;2023-06-22T02:44:19;14.35;;;10.15;;
25687;SDS011;17407;51.120;3.702;2023-06-22T02:46:45;15.30;;;10.70;;
25687;SDS011;17407;51.120;3.702;2023-06-22T02:49:12;12.98;;;10.27;;
25687;SDS011;17407;51.120;3.702;2023-06-22T02:51:42;13.18;;;10.52;;
25687;SDS011;17407;51.120;3.702;2023-06-22T02:54:10;16.13;;;10.13;;
25687;SDS011;17407;51.120;3.702;2023-06-22T02:56:36;12.07;;;9.23;;
25687;SDS011;17407;51.120;3.702;2023-06-22T02:59:02;12.45;;;10.25;;
25687;SDS011;17407;51.120;3.702;2023-06-22T03:01:28;16.30;;;11.48;;
25687;SDS011;17407;51.120;3.702;2023-06-22T03:03:55;15.90;;;10.68;;
25687;SDS011;17407;51.120;3.702;2023-06-22T03:06:21;14.15;;;10.77;;
25687;SDS011;17407;51.120;3.702;2023-06-22T03:08:49;16.05;;;11.70;;
25687;SDS011;17407;51.120;3.702;2023-06-22T03:11:15;15.65;;;11.15;;
25687;SDS011;17407;51.120;3.702;2023-06-22T03:13:41;17.75;;;10.85;;
25687;SDS011;17407;51.120;3.702;2023-06-22T03:16:06;16.75;;;10.80;;
25687;SDS011;17407;51.120;3.702;2023-06-22T03:18:32;17.08;;;11.57;;
25687;SDS011;17407;51.120;3.702;2023-06-22T03:20:58;17.05;;;11.65;;
25687;SDS011;17407;51.120;3.702;2023-06-22T03:23:23;14.73;;;10.80;;
25687;SDS011;17407;51.120;3.702;2023-06-22T03:25:49;16.60;;;11.82;;
25687;SDS011;17407;51.120;3.702;2023-06-22T03:28:15;14.65;;;12.00;;
25687;SDS011;17407;51.120;3.702;2023-06-22T03:30:40;14.73;;;11.45;;
25687;SDS011;17407;51.120;3.702;2023-06-22T03:33:06;15.85;;;10.98;;
25687;SDS011;17407;51.120;3.702;2023-06-22T03:35:32;13.60;;;10.68;;
25687;SDS011;17407;51.120;3.702;2023-06-22T03:37:57;14.85;;;11.63;;
25687;SDS011;17407;51.120;3.702;2023-06-22T03:40:23;18.20;;;12.80;;
25687;SDS011;17407;51.120;3.702;2023-06-22T03:42:49;18.60;;;12.80;;
25687;SDS011;17407;51.120;3.702;2023-06-22T03:45:14;15.88;;;11.57;;
25687;SDS011;17407;51.120;3.702;2023-06-22T03:47:40;14.27;;;10.38;;
25687;SDS011;17407;51.120;3.702;2023-06-22T03:50:06;15.30;;;11.27;;
25687;SDS011;17407;51.120;3.702;2023-06-22T03:52:32;17.60;;;11.73;;
25687;SDS011;17407;51.120;3.702;2023-06-22T03:54:58;19.15;;;11.50;;
25687;SDS011;17407;51.120;3.702;2023-06-22T03:57:23;16.08;;;11.45;;
25687;SDS011;17407;51.120;3.702;2023-06-22T03:59:49;15.00;;;11.57;;
25687;SDS011;17407;51.120;3.702;2023-06-22T04:02:15;19.10;;;11.60;;
25687;SDS011;17407;51.120;3.702;2023-06-22T04:04:40;16.60;;;12.65;;
25687;SDS011;17407;51.120;3.702;2023-06-22T04:07:06;18.92;;;12.63;;
25687;SDS011;17407;51.120;3.702;2023-06-22T04:09:32;17.85;;;12.27;;
25687;SDS011;17407;51.120;3.702;2023-06-22T04:11:58;18.00;;;12.38;;
25687;SDS011;17407;51.120;3.702;2023-06-22T04:14:24;19.98;;;13.68;;
25687;SDS011;17407;51.120;3.702;2023-06-22T04:16:49;18.92;;;12.70;;
25687;SDS011;17407;51.120;3.702;2023-06-22T04:19:15;18.52;;;13.98;;
25687;SDS011;17407;51.120;3.702;2023-06-22T04:21:43;19.58;;;13.80;;
25687;SDS011;17407;51.120;3.702;2023-06-22T04:24:09;23.33;;;14.48;;
25687;SDS011;17407;51.120;3.702;2023-06-22T04:26:36;23.25;;;13.75;;
25687;SDS011;17407;51.120;3.702;2023-06-22T04:29:05;20.15;;;14.70;;
25687;SDS011;17407;51.120;3.702;2023-06-22T04:31:31;25.17;;;14.45;;
25687;SDS011;17407;51.120;3.702;2023-06-22T04:34:01;20.42;;;14.77;;
25687;SDS011;17407;51.120;3.702;2023-06-22T04:36:35;21.58;;;15.07;;
25687;SDS011;17407;51.120;3.702;2023-06-22T04:39:06;23.02;;;13.90;;
25687;SDS011;17407;51.120;3.702;2023-06-22T04:41:34;19.90;;;14.13;;
25687;SDS011;17407;51.120;3.702;2023-06-22T04:46:34;21.42;;;14.65;;
25687;SDS011;17407;51.120;3.702;2023-06-22T04:49:03;24.73;;;15.52;;
25687;SDS011;17407;51.120;3.702;2023-06-22T04:51:38;27.42;;;17.08;;
25687;SDS011;17407;51.120;3.702;2023-06-22T04:54:05;22.73;;;15.85;;
25687;SDS011;17407;51.120;3.702;2023-06-22T04:56:32;23.60;;;16.77;;
25687;SDS011;17407;51.120;3.702;2023-06-22T04:58:57;24.23;;;17.13;;
25687;SDS011;17407;51.120;3.702;2023-06-22T05:01:23;30.55;;;16.70;;
25687;SDS011;17407;51.120;3.702;2023-06-22T05:03:50;25.83;;;18.17;;
25687;SDS011;17407;51.120;3.702;2023-06-22T05:06:20;26.77;;;17.98;;
25687;SDS011;17407;51.120;3.702;2023-06-22T05:08:55;26.63;;;17.05;;
25687;SDS011;17407;51.120;3.702;2023-06-22T05:11:27;30.33;;;17.63;;
25687;SDS011;17407;51.120;3.702;2023-06-22T05:13:53;29.63;;;18.33;;
25687;SDS011;17407;51.120;3.702;2023-06-22T05:16:19;34.17;;;19.95;;
25687;SDS011;17407;51.120;3.702;2023-06-22T05:18:52;27.83;;;18.00;;
25687;SDS011;17407;51.120;3.702;2023-06-22T05:21:26;24.80;;;17.92;;
25687;SDS011;17407;51.120;3.702;2023-06-22T05:23:52;28.30;;;19.45;;
25687;SDS011;17407;51.120;3.702;2023-06-22T05:26:19;31.85;;;20.27;;
25687;SDS011;17407;51.120;3.702;2023-06-22T05:28:46;32.38;;;20.63;;
25687;SDS011;17407;51.120;3.702;2023-06-22T05:31:15;25.13;;;19.50;;
25687;SDS011;17407;51.120;3.702;2023-06-22T05:33:42;36.70;;;22.17;;
25687;SDS011;17407;51.120;3.702;2023-06-22T05:36:08;29.65;;;20.55;;
25687;SDS011;17407;51.120;3.702;2023-06-22T05:38:35;29.05;;;21.23;;
25687;SDS011;17407;51.120;3.702;2023-06-22T05:41:01;27.67;;;20.67;;
25687;SDS011;17407;51.120;3.702;2023-06-22T05:43:26;31.60;;;20.75;;
25687;SDS011;17407;51.120;3.702;2023-06-22T05:45:52;29.67;;;20.60;;
25687;SDS011;17407;51.120;3.702;2023-06-22T05:48:18;31.75;;;20.95;;
25687;SDS011;17407;51.120;3.702;2023-06-22T05:50:43;28.65;;;19.52;;
25687;SDS011;17407;51.120;3.702;2023-06-22T05:53:09;29.23;;;19.08;;
25687;SDS011;17407;51.120;3.702;2023-06-22T05:55:35;28.02;;;20.00;;
25687;SDS011;17407;51.120;3.702;2023-06-22T05:58:00;24.83;;;18.67;;
25687;SDS011;17407;51.120;3.702;2023-06-22T06:00:26;27.20;;;19.55;;
25687;SDS011;17407;51.120;3.702;2023-06-22T06:02:52;26.98;;;18.58;;
25687;SDS011;17407;51.120;3.702;2023-06-22T06:05:17;28.45;;;19.42;;
25687;SDS011;17407;51.120;3.702;2023-06-22T06:07:44;28.92;;;19.80;;
25687;SDS011;17407;51.120;3.702;2023-06-22T06:10:10;28.48;;;18.65;;
25687;SDS011;17407;51.120;3.702;2023-06-22T06:12:36;26.92;;;20.08;;
25687;SDS011;17407;51.120;3.702;2023-06-22T06:15:03;25.50;;;18.75;;
25687;SDS011;17407;51.120;3.702;2023-06-22T06:17:29;26.48;;;18.13;;
25687;SDS011;17407;51.120;3.702;2023-06-22T06:19:54;25.92;;;18.73;;
25687;SDS011;17407;51.120;3.702;2023-06-22T06:22:20;25.52;;;18.38;;
25687;SDS011;17407;51.120;3.702;2023-06-22T06:24:48;23.67;;;18.67;;
25687;SDS011;17407;51.120;3.702;2023-06-22T06:27:14;24.05;;;19.00;;
25687;SDS011;17407;51.120;3.702;2023-06-22T06:29:40;28.08;;;19.48;;
25687;SDS011;17407;51.120;3.702;2023-06-22T06:32:05;27.70;;;19.10;;
25687;SDS011;17407;51.120;3.702;2023-06-22T06:34:31;23.02;;;19.13;;
25687;SDS011;17407;51.120;3.702;2023-06-22T06:36:57;26.10;;;20.23;;
25687;SDS011;17407;51.120;3.702;2023-06-22T06:39:23;26.98;;;18.85;;
25687;SDS011;17407;51.120;3.702;2023-06-22T06:41:49;24.30;;;19.63;;
25687;SDS011;17407;51.120;3.702;2023-06-22T06:44:14;28.40;;;19.95;;
25687;SDS011;17407;51.120;3.702;2023-06-22T06:46:40;28.50;;;20.25;;
25687;SDS011;17407;51.120;3.702;2023-06-22T06:49:07;27.88;;;19.70;;
25687;SDS011;17407;51.120;3.702;2023-06-22T06:51:32;26.60;;;19.73;;
25687;SDS011;17407;51.120;3.702;2023-06-22T06:53:58;24.13;;;19.90;;
25687;SDS011;17407;51.120;3.702;2023-06-22T06:56:23;25.80;;;19.40;;
25687;SDS011;17407;51.120;3.702;2023-06-22T06:58:49;25.05;;;19.58;;
25687;SDS011;17407;51.120;3.702;2023-06-22T07:01:16;30.15;;;20.33;;
25687;SDS011;17407;51.120;3.702;2023-06-22T07:03:41;28.15;;;21.65;;
25687;SDS011;17407;51.120;3.702;2023-06-22T07:06:08;29.45;;;22.58;;
25687;SDS011;17407;51.120;3.702;2023-06-22T07:08:34;29.60;;;21.33;;
25687;SDS011;17407;51.120;3.702;2023-06-22T07:11:01;25.15;;;19.90;;
25687;SDS011;17407;51.120;3.702;2023-06-22T07:13:27;26.17;;;21.45;;
25687;SDS011;17407;51.120;3.702;2023-06-22T07:15:53;28.10;;;20.92;;
25687;SDS011;17407;51.120;3.702;2023-06-22T07:18:18;27.35;;;20.00;;
25687;SDS011;17407;51.120;3.702;2023-06-22T07:20:44;26.40;;;19.42;;
25687;SDS011;17407;51.120;3.702;2023-06-22T07:23:09;25.42;;;19.05;;
25687;SDS011;17407;51.120;3.702;2023-06-22T07:25:35;25.55;;;20.05;;
25687;SDS011;17407;51.120;3.702;2023-06-22T07:28:02;27.33;;;22.13;;
25687;SDS011;17407;51.120;3.702;2023-06-22T07:30:29;23.17;;;20.13;;
25687;SDS011;17407;51.120;3.702;2023-06-22T07:32:56;26.10;;;19.70;;
25687;SDS011;17407;51.120;3.702;2023-06-22T07:35:22;23.67;;;19.38;;
25687;SDS011;17407;51.120;3.702;2023-06-22T07:37:48;27.00;;;19.30;;
25687;SDS011;17407;51.120;3.702;2023-06-22T07:40:14;23.80;;;19.45;;
25687;SDS011;17407;51.120;3.702;2023-06-22T07:42:40;25.48;;;20.50;;
25687;SDS011;17407;51.120;3.702;2023-06-22T07:45:05;26.48;;;22.10;;
25687;SDS011;17407;51.120;3.702;2023-06-22T07:47:33;22.08;;;18.63;;
25687;SDS011;17407;51.120;3.702;2023-06-22T07:50:00;22.63;;;18.30;;
25687;SDS011;17407;51.120;3.702;2023-06-22T07:52:27;26.25;;;20.15;;
25687;SDS011;17407;51.120;3.702;2023-06-22T07:54:54;25.55;;;19.98;;
25687;SDS011;17407;51.120;3.702;2023-06-22T07:57:20;21.20;;;19.00;;
25687;SDS011;17407;51.120;3.702;2023-06-22T07:59:45;22.33;;;19.65;;
25687;SDS011;17407;51.120;3.702;2023-06-22T08:02:11;24.10;;;19.58;;
25687;SDS011;17407;51.120;3.702;2023-06-22T08:04:37;26.10;;;19.73;;
25687;SDS011;17407;51.120;3.702;2023-06-22T08:07:03;19.92;;;17.48;;
25687;SDS011;17407;51.120;3.702;2023-06-22T08:09:29;21.63;;;19.20;;
25687;SDS011;17407;51.120;3.702;2023-06-22T08:11:57;21.25;;;17.75;;
25687;SDS011;17407;51.120;3.702;2023-06-22T08:14:24;24.58;;;19.67;;
25687;SDS011;17407;51.120;3.702;2023-06-22T08:16:51;23.38;;;18.73;;
25687;SDS011;17407;51.120;3.702;2023-06-22T08:19:16;23.45;;;19.42;;
25687;SDS011;17407;51.120;3.702;2023-06-22T08:21:43;22.77;;;19.05;;
25687;SDS011;17407;51.120;3.702;2023-06-22T08:24:09;22.73;;;19.20;;
25687;SDS011;17407;51.120;3.702;2023-06-22T08:26:34;24.65;;;19.73;;
25687;SDS011;17407;51.120;3.702;2023-06-22T08:29:02;25.42;;;20.52;;
25687;SDS011;17407;51.120;3.702;2023-06-22T08:31:28;22.77;;;20.35;;
25687;SDS011;17407;51.120;3.702;2023-06-22T08:33:54;22.15;;;19.23;;
25687;SDS011;17407;51.120;3.702;2023-06-22T08:36:20;24.00;;;20.50;;
25687;SDS011;17407;51.120;3.702;2023-06-22T08:38:45;20.30;;;18.13;;
25687;SDS011;17407;51.120;3.702;2023-06-22T08:41:15;20.40;;;18.27;;
25687;SDS011;17407;51.120;3.702;2023-06-22T08:43:41;22.27;;;19.83;;
25687;SDS011;17407;51.120;3.702;2023-06-22T08:46:08;26.27;;;20.55;;
25687;SDS011;17407;51.120;3.702;2023-06-22T08:48:37;25.80;;;21.50;;
25687;SDS011;17407;51.120;3.702;2023-06-22T08:51:04;23.23;;;20.70;;
25687;SDS011;17407;51.120;3.702;2023-06-22T08:53:33;24.05;;;21.42;;
25687;SDS011;17407;51.120;3.702;2023-06-22T08:56:00;22.05;;;19.75;;
25687;SDS011;17407;51.120;3.702;2023-06-22T08:58:25;23.90;;;21.38;;
25687;SDS011;17407;51.120;3.702;2023-06-22T09:00:51;23.02;;;20.15;;
25687;SDS011;17407;51.120;3.702;2023-06-22T09:03:17;26.33;;;22.98;;
25687;SDS011;17407;51.120;3.702;2023-06-22T09:05:42;23.45;;;19.75;;
25687;SDS011;17407;51.120;3.702;2023-06-22T09:08:08;22.98;;;17.50;;
25687;SDS011;17407;51.120;3.702;2023-06-22T09:10:34;17.17;;;15.02;;
25687;SDS011;17407;51.120;3.702;2023-06-22T09:13:00;13.93;;;12.45;;
25687;SDS011;17407;51.120;3.702;2023-06-22T09:15:25;68.43;;;19.55;;
25687;SDS011;17407;51.120;3.702;2023-06-22T09:17:51;131.88;;;21.70;;
25687;SDS011;17407;51.120;3.702;2023-06-22T09:20:19;93.55;;;23.05;;
25687;SDS011;17407;51.120;3.702;2023-06-22T09:22:45;34.30;;;18.92;;
25687;SDS011;17407;51.120;3.702;2023-06-22T09:25:11;21.42;;;18.55;;
25687;SDS011;17407;51.120;3.702;2023-06-22T09:27:37;24.52;;;20.25;;
25687;SDS011;17407;51.120;3.702;2023-06-22T09:30:03;27.30;;;19.80;;
25687;SDS011;17407;51.120;3.702;2023-06-22T09:32:29;25.80;;;19.13;;
25687;SDS011;17407;51.120;3.702;2023-06-22T09:34:55;21.20;;;17.95;;
25687;SDS011;17407;51.120;3.702;2023-06-22T09:37:21;25.35;;;21.30;;
25687;SDS011;17407;51.120;3.702;2023-06-22T09:39:46;23.27;;;18.77;;
25687;SDS011;17407;51.120;3.702;2023-06-22T09:42:12;25.35;;;20.67;;
25687;SDS011;17407;51.120;3.702;2023-06-22T09:44:38;24.92;;;18.55;;
25687;SDS011;17407;51.120;3.702;2023-06-22T09:47:04;22.67;;;18.70;;
25687;SDS011;17407;51.120;3.702;2023-06-22T09:49:30;25.15;;;18.98;;
25687;SDS011;17407;51.120;3.702;2023-06-22T09:51:57;19.98;;;16.52;;
25687;SDS011;17407;51.120;3.702;2023-06-22T09:54:22;22.42;;;17.88;;
25687;SDS011;17407;51.120;3.702;2023-06-22T09:56:48;17.63;;;15.73;;
25687;SDS011;17407;51.120;3.702;2023-06-22T09:59:14;17.60;;;14.77;;
25687;SDS011;17407;51.120;3.702;2023-06-22T10:01:39;24.08;;;17.58;;
25687;SDS011;17407;51.120;3.702;2023-06-22T10:04:05;23.85;;;19.17;;
25687;SDS011;17407;51.120;3.702;2023-06-22T10:06:31;27.10;;;20.05;;
25687;SDS011;17407;51.120;3.702;2023-06-22T10:08:56;23.50;;;17.23;;
25687;SDS011;17407;51.120;3.702;2023-06-22T10:11:22;22.73;;;17.95;;
25687;SDS011;17407;51.120;3.702;2023-06-22T10:13:54;22.10;;;18.08;;
25687;SDS011;17407;51.120;3.702;2023-06-22T10:16:20;22.33;;;16.52;;
25687;SDS011;17407;51.120;3.702;2023-06-22T10:18:45;22.05;;;17.23;;
25687;SDS011;17407;51.120;3.702;2023-06-22T10:21:11;20.00;;;16.50;;
25687;SDS011;17407;51.120;3.702;2023-06-22T10:23:37;21.42;;;17.63;;
25687;SDS011;17407;51.120;3.702;2023-06-22T10:26:02;30.08;;;18.13;;
25687;SDS011;17407;51.120;3.702;2023-06-22T10:28:28;19.20;;;16.98;;
25687;SDS011;17407;51.120;3.702;2023-06-22T10:30:53;26.83;;;18.83;;
25687;SDS011;17407;51.120;3.702;2023-06-22T10:33:19;26.77;;;20.63;;
25687;SDS011;17407;51.120;3.702;2023-06-22T10:35:45;28.20;;;20.10;;
25687;SDS011;17407;51.120;3.702;2023-06-22T10:38:11;20.48;;;17.75;;
25687;SDS011;17407;51.120;3.702;2023-06-22T10:40:36;29.52;;;19.83;;
25687;SDS011;17407;51.120;3.702;2023-06-22T10:43:04;25.75;;;20.63;;
25687;SDS011;17407;51.120;3.702;2023-06-22T10:45:30;23.17;;;19.20;;
25687;SDS011;17407;51.120;3.702;2023-06-22T10:47:58;26.73;;;19.95;;
25687;SDS011;17407;51.120;3.702;2023-06-22T10:50:24;24.38;;;19.88;;
25687;SDS011;17407;51.120;3.702;2023-06-22T10:52:50;25.35;;;20.35;;
25687;SDS011;17407;51.120;3.702;2023-06-22T10:55:15;28.73;;;21.83;;
25687;SDS011;17407;51.120;3.702;2023-06-22T10:57:41;26.85;;;19.50;;
25687;SDS011;17407;51.120;3.702;2023-06-22T11:00:09;24.15;;;17.65;;
25687;SDS011;17407;51.120;3.702;2023-06-22T11:02:36;26.83;;;20.88;;
25687;SDS011;17407;51.120;3.702;2023-06-22T11:05:02;21.88;;;17.88;;
25687;SDS011;17407;51.120;3.702;2023-06-22T11:07:28;20.15;;;17.58;;
25687;SDS011;17407;51.120;3.702;2023-06-22T11:09:54;21.58;;;16.52;;
25687;SDS011;17407;51.120;3.702;2023-06-22T11:12:20;19.42;;;16.73;;
25687;SDS011;17407;51.120;3.702;2023-06-22T11:14:45;18.13;;;15.55;;
25687;SDS011;17407;51.120;3.702;2023-06-22T11:17:11;17.65;;;14.40;;
25687;SDS011;17407;51.120;3.702;2023-06-22T11:19:37;21.38;;;15.73;;
25687;SDS011;17407;51.120;3.702;2023-06-22T11:22:02;19.50;;;15.45;;
25687;SDS011;17407;51.120;3.702;2023-06-22T11:24:28;17.70;;;13.27;;
25687;SDS011;17407;51.120;3.702;2023-06-22T11:26:54;18.77;;;13.75;;
25687;SDS011;17407;51.120;3.702;2023-06-22T11:29:20;19.92;;;14.13;;
25687;SDS011;17407;51.120;3.702;2023-06-22T11:31:45;24.23;;;18.85;;
25687;SDS011;17407;51.120;3.702;2023-06-22T11:34:11;26.17;;;20.35;;
25687;SDS011;17407;51.120;3.702;2023-06-22T11:36:36;26.50;;;21.20;;
25687;SDS011;17407;51.120;3.702;2023-06-22T11:39:02;25.77;;;20.98;;
25687;SDS011;17407;51.120;3.702;2023-06-22T11:41:28;28.55;;;21.65;;
25687;SDS011;17407;51.120;3.702;2023-06-22T11:43:54;25.02;;;21.30;;
25687;SDS011;17407;51.120;3.702;2023-06-22T11:46:19;30.20;;;23.17;;
25687;SDS011;17407;51.120;3.702;2023-06-22T11:48:48;23.58;;;19.98;;
25687;SDS011;17407;51.120;3.702;2023-06-22T11:51:14;29.70;;;22.08;;
25687;SDS011;17407;51.120;3.702;2023-06-22T11:53:39;21.95;;;18.55;;
25687;SDS011;17407;51.120;3.702;2023-06-22T11:56:05;21.35;;;15.63;;
25687;SDS011;17407;51.120;3.702;2023-06-22T11:58:30;19.92;;;15.35;;
25687;SDS011;17407;51.120;3.702;2023-06-22T12:00:56;17.27;;;13.88;;
25687;SDS011;17407;51.120;3.702;2023-06-22T12:03:22;19.45;;;14.05;;
25687;SDS011;17407;51.120;3.702;2023-06-22T12:05:47;20.48;;;13.55;;
25687;SDS011;17407;51.120;3.702;2023-06-22T12:08:14;19.00;;;15.40;;
25687;SDS011;17407;51.120;3.702;2023-06-22T12:10:40;20.90;;;15.80;;
25687;SDS011;17407;51.120;3.702;2023-06-22T12:13:05;23.10;;;16.60;;
25687;SDS011;17407;51.120;3.702;2023-06-22T12:15:31;22.40;;;18.17;;
25687;SDS011;17407;51.120;3.702;2023-06-22T12:17:56;23.80;;;18.40;;
25687;SDS011;17407;51.120;3.702;2023-06-22T12:20:22;22.05;;;17.60;;
25687;SDS011;17407;51.120;3.702;2023-06-22T12:22:48;23.35;;;18.48;;
25687;SDS011;17407;51.120;3.702;2023-06-22T12:25:16;24.83;;;18.42;;
25687;SDS011;17407;51.120;3.702;2023-06-22T12:27:42;22.00;;;16.42;;
25687;SDS011;17407;51.120;3.702;2023-06-22T12:30:08;17.25;;;14.10;;
25687;SDS011;17407;51.120;3.702;2023-06-22T12:32:34;18.77;;;15.65;;
25687;SDS011;17407;51.120;3.702;2023-06-22T12:35:00;23.63;;;15.95;;
25687;SDS011;17407;51.120;3.702;2023-06-22T12:37:25;21.45;;;15.68;;
25687;SDS011;17407;51.120;3.702;2023-06-22T12:39:51;20.13;;;17.33;;
25687;SDS011;17407;51.120;3.702;2023-06-22T12:42:18;20.00;;;15.60;;
25687;SDS011;17407;51.120;3.702;2023-06-22T12:44:43;21.30;;;15.45;;
25687;SDS011;17407;51.120;3.702;2023-06-22T12:47:09;21.52;;;15.57;;
25687;SDS011;17407;51.120;3.702;2023-06-22T12:49:36;18.38;;;14.60;;
25687;SDS011;17407;51.120;3.702;2023-06-22T12:52:02;21.27;;;16.90;;
25687;SDS011;17407;51.120;3.702;2023-06-22T12:54:28;19.42;;;14.43;;
25687;SDS011;17407;51.120;3.702;2023-06-22T12:56:57;21.88;;;16.25;;
25687;SDS011;17407;51.120;3.702;2023-06-22T12:59:23;20.73;;;15.60;;
25687;SDS011;17407;51.120;3.702;2023-06-22T13:01:48;22.02;;;15.82;;
25687;SDS011;17407;51.120;3.702;2023-06-22T13:04:14;19.55;;;15.52;;
25687;SDS011;17407;51.120;3.702;2023-06-22T13:06:43;21.42;;;16.65;;
25687;SDS011;17407;51.120;3.702;2023-06-22T13:09:12;18.98;;;15.45;;
25687;SDS011;17407;51.120;3.702;2023-06-22T13:11:39;24.05;;;16.02;;
25687;SDS011;17407;51.120;3.702;2023-06-22T13:14:05;19.92;;;15.88;;
25687;SDS011;17407;51.120;3.702;2023-06-22T13:16:31;19.83;;;16.67;;
25687;SDS011;17407;51.120;3.702;2023-06-22T13:18:58;18.08;;;15.88;;
25687;SDS011;17407;51.120;3.702;2023-06-22T13:21:23;19.48;;;14.80;;
25687;SDS011;17407;51.120;3.702;2023-06-22T13:23:49;19.13;;;15.50;;
25687;SDS011;17407;51.120;3.702;2023-06-22T13:26:14;15.18;;;13.30;;
25687;SDS011;17407;51.120;3.702;2023-06-22T13:28:40;17.30;;;15.40;;
25687;SDS011;17407;51.120;3.702;2023-06-22T13:31:06;18.38;;;16.48;;
25687;SDS011;17407;51.120;3.702;2023-06-22T13:33:31;20.77;;;16.60;;
25687;SDS011;17407;51.120;3.702;2023-06-22T13:35:57;18.67;;;16.67;;
25687;SDS011;17407;51.120;3.702;2023-06-22T13:38:23;18.20;;;15.38;;
25687;SDS011;17407;51.120;3.702;2023-06-22T13:40:49;21.60;;;15.88;;
25687;SDS011;17407;51.120;3.702;2023-06-22T13:43:14;16.50;;;14.43;;
25687;SDS011;17407;51.120;3.702;2023-06-22T13:45:41;17.88;;;15.40;;
25687;SDS011;17407;51.120;3.702;2023-06-22T13:48:08;20.05;;;15.88;;
25687;SDS011;17407;51.120;3.702;2023-06-22T13:50:33;19.35;;;15.25;;
25687;SDS011;17407;51.120;3.702;2023-06-22T13:52:59;23.38;;;16.50;;
25687;SDS011;17407;51.120;3.702;2023-06-22T13:55:25;19.15;;;16.10;;
25687;SDS011;17407;51.120;3.702;2023-06-22T13:57:51;21.27;;;16.50;;
25687;SDS011;17407;51.120;3.702;2023-06-22T14:00:17;19.17;;;16.17;;
25687;SDS011;17407;51.120;3.702;2023-06-22T14:02:43;32.55;;;25.15;;
25687;SDS011;17407;51.120;3.702;2023-06-22T14:05:09;44.15;;;31.58;;
25687;SDS011;17407;51.120;3.702;2023-06-22T14:07:36;48.28;;;32.38;;
25687;SDS011;17407;51.120;3.702;2023-06-22T14:10:02;44.70;;;33.10;;
25687;SDS011;17407;51.120;3.702;2023-06-22T14:12:28;42.78;;;32.78;;
25687;SDS011;17407;51.120;3.702;2023-06-22T14:14:54;41.38;;;30.27;;
25687;SDS011;17407;51.120;3.702;2023-06-22T14:17:20;42.50;;;32.65;;
25687;SDS011;17407;51.120;3.702;2023-06-22T14:19:50;44.30;;;32.72;;
25687;SDS011;17407;51.120;3.702;2023-06-22T14:22:18;42.20;;;32.85;;
25687;SDS011;17407;51.120;3.702;2023-06-22T14:24:44;44.00;;;32.72;;
25687;SDS011;17407;51.120;3.702;2023-06-22T14:27:10;41.75;;;32.13;;